sensor_id;sensor_type;location;lat;lon;timestamp;temperature;humidity
10129;DHT22;5104;50.720;7.044;2024-01-06T00:00:14;7.70;1.00
10129;DHT22;5104;50.720;7.044;2024-01-06T00:02:41;7.70;1.30
10129;DHT22;5104;50.720;7.044;2024-01-06T00:05:08;7.70;1.00
10129;DHT22;5104;50.720;7.044;2024-01-06T00:07:35;7.80;1.00
10129;DHT22;5104;50.720;7.044;2024-01-06T00:10:05;7.80;1.00
10129;DHT22;5104;50.720;7.044;2024-01-06T00:12:32;7.80;1.00
10129;DHT22;5104;50.720;7.044;2024-01-06T00:14:59;7.80;1.00
10129;DHT22;5104;50.720;7.044;2024-01-06T00:17:26;7.80;45.10
10129;DHT22;5104;50.720;7.044;2024-01-06T00:19:53;7.80;37.70
10129;DHT22;5104;50.720;7.044;2024-01-06T00:22:20;7.90;16.80
10129;DHT22;5104;50.720;7.044;2024-01-06T00:24:47;7.80;84.20
10129;DHT22;5104;50.720;7.044;2024-01-06T00:27:16;7.80;99.90
10129;DHT22;5104;50.720;7.044;2024-01-06T00:29:43;7.80;99.90
10129;DHT22;5104;50.720;7.044;2024-01-06T00:32:10;7.80;99.90
10129;DHT22;5104;50.720;7.044;2024-01-06T00:34:37;7.80;99.90
10129;DHT22;5104;50.720;7.044;2024-01-06T00:37:04;7.80;99.90
10129;DHT22;5104;50.720;7.044;2024-01-06T00:39:31;7.80;99.90
10129;DHT22;5104;50.720;7.044;2024-01-06T00:41:58;7.80;99.90
10129;DHT22;5104;50.720;7.044;2024-01-06T00:44:27;7.90;99.90
10129;DHT22;5104;50.720;7.044;2024-01-06T00:46:54;7.90;99.90
10129;DHT22;5104;50.720;7.044;2024-01-06T00:49:21;7.90;99.90
10129;DHT22;5104;50.720;7.044;2024-01-06T00:51:48;7.90;99.90
10129;DHT22;5104;50.720;7.044;2024-01-06T00:54:16;7.90;99.90
10129;DHT22;5104;50.720;7.044;2024-01-06T00:56:43;7.80;99.90
10129;DHT22;5104;50.720;7.044;2024-01-06T00:59:10;7.80;99.90
10129;DHT22;5104;50.720;7.044;2024-01-06T01:01:38;7.80;99.90
10129;DHT22;5104;50.720;7.044;2024-01-06T01:04:05;7.80;99.90
10129;DHT22;5104;50.720;7.044;2024-01-06T01:06:32;7.80;99.90
10129;DHT22;5104;50.720;7.044;2024-01-06T01:08:59;7.80;99.90
10129;DHT22;5104;50.720;7.044;2024-01-06T01:11:26;7.80;99.90
10129;DHT22;5104;50.720;7.044;2024-01-06T01:13:53;7.80;99.90
10129;DHT22;5104;50.720;7.044;2024-01-06T01:16:20;7.80;99.90
10129;DHT22;5104;50.720;7.044;2024-01-06T01:18:48;7.80;99.90
10129;DHT22;5104;50.720;7.044;2024-01-06T01:21:15;7.80;99.90
10129;DHT22;5104;50.720;7.044;2024-01-06T01:23:42;7.80;99.90
10129;DHT22;5104;50.720;7.044;2024-01-06T01:26:10;7.80;99.90
10129;DHT22;5104;50.720;7.044;2024-01-06T01:28:37;7.80;99.90
10129;DHT22;5104;50.720;7.044;2024-01-06T01:31:03;7.80;99.90
10129;DHT22;5104;50.720;7.044;2024-01-06T01:33:30;7.90;99.90
10129;DHT22;5104;50.720;7.044;2024-01-06T01:35:59;7.80;1.00
10129;DHT22;5104;50.720;7.044;2024-01-06T01:38:26;7.80;1.00
10129;DHT22;5104;50.720;7.044;2024-01-06T01:40:53;7.80;1.00
10129;DHT22;5104;50.720;7.044;2024-01-06T01:43:20;7.70;83.90
10129;DHT22;5104;50.720;7.044;2024-01-06T01:45:50;7.60;1.00
10129;DHT22;5104;50.720;7.044;2024-01-06T01:48:17;7.60;1.00
10129;DHT22;5104;50.720;7.044;2024-01-06T01:50:45;7.60;1.00
10129;DHT22;5104;50.720;7.044;2024-01-06T01:53:14;7.60;1.00
10129;DHT22;5104;50.720;7.044;2024-01-06T01:55:41;7.60;1.00
10129;DHT22;5104;50.720;7.044;2024-01-06T01:58:09;7.50;99.90
10129;DHT22;5104;50.720;7.044;2024-01-06T02:00:37;7.50;1.00
10129;DHT22;5104;50.720;7.044;2024-01-06T02:03:04;7.40;3.80
10129;DHT22;5104;50.720;7.044;2024-01-06T02:05:32;7.50;99.90
10129;DHT22;5104;50.720;7.044;2024-01-06T02:07:59;7.40;1.00
10129;DHT22;5104;50.720;7.044;2024-01-06T02:10:27;7.40;1.00
10129;DHT22;5104;50.720;7.044;2024-01-06T02:12:54;7.40;1.00
10129;DHT22;5104;50.720;7.044;2024-01-06T02:15:21;7.40;99.90
10129;DHT22;5104;50.720;7.044;2024-01-06T02:17:49;7.30;1.00
10129;DHT22;5104;50.720;7.044;2024-01-06T02:20:16;7.30;99.90
10129;DHT22;5104;50.720;7.044;2024-01-06T02:22:46;7.30;1.00
10129;DHT22;5104;50.720;7.044;2024-01-06T02:25:13;7.20;99.90
10129;DHT22;5104;50.720;7.044;2024-01-06T02:27:41;7.30;1.00
10129;DHT22;5104;50.720;7.044;2024-01-06T02:30:08;7.20;1.00
10129;DHT22;5104;50.720;7.044;2024-01-06T02:32:35;7.20;1.00
10129;DHT22;5104;50.720;7.044;2024-01-06T02:35:03;7.20;1.00
10129;DHT22;5104;50.720;7.044;2024-01-06T02:37:30;7.20;1.00
10129;DHT22;5104;50.720;7.044;2024-01-06T02:39:58;7.20;73.40
10129;DHT22;5104;50.720;7.044;2024-01-06T02:42:25;7.20;99.90
10129;DHT22;5104;50.720;7.044;2024-01-06T02:44:52;7.20;1.00
10129;DHT22;5104;50.720;7.044;2024-01-06T02:47:19;7.20;1.00
10129;DHT22;5104;50.720;7.044;2024-01-06T02:49:46;7.20;99.90
10129;DHT22;5104;50.720;7.044;2024-01-06T02:52:13;7.20;1.00
10129;DHT22;5104;50.720;7.044;2024-01-06T02:54:40;7.20;1.00
10129;DHT22;5104;50.720;7.044;2024-01-06T02:57:08;7.20;1.00
10129;DHT22;5104;50.720;7.044;2024-01-06T02:59:39;7.30;99.90
10129;DHT22;5104;50.720;7.044;2024-01-06T03:02:06;7.20;1.00
10129;DHT22;5104;50.720;7.044;2024-01-06T03:04:32;7.20;1.00
10129;DHT22;5104;50.720;7.044;2024-01-06T03:06:59;7.30;1.00
10129;DHT22;5104;50.720;7.044;2024-01-06T03:09:26;7.30;99.90
10129;DHT22;5104;50.720;7.044;2024-01-06T03:11:53;7.20;99.90
10129;DHT22;5104;50.720;7.044;2024-01-06T03:14:22;7.20;1.00
10129;DHT22;5104;50.720;7.044;2024-01-06T03:16:49;7.30;99.90
10129;DHT22;5104;50.720;7.044;2024-01-06T03:19:15;7.20;99.90
10129;DHT22;5104;50.720;7.044;2024-01-06T03:21:42;7.20;99.90
10129;DHT22;5104;50.720;7.044;2024-01-06T03:24:09;7.20;99.90
10129;DHT22;5104;50.720;7.044;2024-01-06T03:26:36;7.20;99.90
10129;DHT22;5104;50.720;7.044;2024-01-06T03:29:03;7.30;99.90
10129;DHT22;5104;50.720;7.044;2024-01-06T03:31:31;7.20;99.90
10129;DHT22;5104;50.720;7.044;2024-01-06T03:33:58;7.20;99.90
10129;DHT22;5104;50.720;7.044;2024-01-06T03:36:25;7.20;99.90
10129;DHT22;5104;50.720;7.044;2024-01-06T03:38:52;7.20;99.90
10129;DHT22;5104;50.720;7.044;2024-01-06T03:41:19;7.20;99.90
10129;DHT22;5104;50.720;7.044;2024-01-06T03:43:46;7.20;99.90
10129;DHT22;5104;50.720;7.044;2024-01-06T03:46:12;7.20;99.90
10129;DHT22;5104;50.720;7.044;2024-01-06T03:48:41;7.20;99.90
10129;DHT22;5104;50.720;7.044;2024-01-06T03:51:08;7.20;99.90
10129;DHT22;5104;50.720;7.044;2024-01-06T03:53:36;7.20;99.90
10129;DHT22;5104;50.720;7.044;2024-01-06T03:56:04;7.10;99.90
10129;DHT22;5104;50.720;7.044;2024-01-06T03:58:31;7.20;99.90
10129;DHT22;5104;50.720;7.044;2024-01-06T04:00:58;7.20;99.90
10129;DHT22;5104;50.720;7.044;2024-01-06T04:03:24;7.10;99.90
10129;DHT22;5104;50.720;7.044;2024-01-06T04:05:53;7.10;99.90
10129;DHT22;5104;50.720;7.044;2024-01-06T04:08:20;7.20;99.90
10129;DHT22;5104;50.720;7.044;2024-01-06T04:10:47;7.20;99.90
10129;DHT22;5104;50.720;7.044;2024-01-06T04:13:15;7.10;99.90
10129;DHT22;5104;50.720;7.044;2024-01-06T04:15:42;7.10;99.90
10129;DHT22;5104;50.720;7.044;2024-01-06T04:18:08;7.10;99.90
10129;DHT22;5104;50.720;7.044;2024-01-06T04:20:35;7.10;99.90
10129;DHT22;5104;50.720;7.044;2024-01-06T04:23:04;7.20;99.90
10129;DHT22;5104;50.720;7.044;2024-01-06T04:25:31;7.20;99.90
10129;DHT22;5104;50.720;7.044;2024-01-06T04:27:57;7.20;99.90
10129;DHT22;5104;50.720;7.044;2024-01-06T04:30:24;7.20;99.90
10129;DHT22;5104;50.720;7.044;2024-01-06T04:32:51;7.30;99.90
10129;DHT22;5104;50.720;7.044;2024-01-06T04:35:20;7.30;99.90
10129;DHT22;5104;50.720;7.044;2024-01-06T04:37:47;7.30;99.90
10129;DHT22;5104;50.720;7.044;2024-01-06T04:40:16;7.30;99.90
10129;DHT22;5104;50.720;7.044;2024-01-06T04:42:43;7.30;99.90
10129;DHT22;5104;50.720;7.044;2024-01-06T04:45:09;7.30;99.90
10129;DHT22;5104;50.720;7.044;2024-01-06T04:47:36;7.30;99.90
10129;DHT22;5104;50.720;7.044;2024-01-06T04:50:04;7.20;99.90
10129;DHT22;5104;50.720;7.044;2024-01-06T04:52:31;7.20;99.90
10129;DHT22;5104;50.720;7.044;2024-01-06T04:54:58;7.30;99.90
10129;DHT22;5104;50.720;7.044;2024-01-06T04:57:26;7.30;99.90
10129;DHT22;5104;50.720;7.044;2024-01-06T04:59:53;7.30;99.90
10129;DHT22;5104;50.720;7.044;2024-01-06T05:02:20;7.30;99.90
10129;DHT22;5104;50.720;7.044;2024-01-06T05:04:47;7.30;99.90
10129;DHT22;5104;50.720;7.044;2024-01-06T05:07:14;7.30;99.90
10129;DHT22;5104;50.720;7.044;2024-01-06T05:09:41;7.30;99.90
10129;DHT22;5104;50.720;7.044;2024-01-06T05:12:08;7.30;99.90
10129;DHT22;5104;50.720;7.044;2024-01-06T05:14:36;7.30;99.90
10129;DHT22;5104;50.720;7.044;2024-01-06T05:17:03;7.30;99.90
10129;DHT22;5104;50.720;7.044;2024-01-06T05:19:31;7.30;99.90
10129;DHT22;5104;50.720;7.044;2024-01-06T05:21:58;7.30;99.90
10129;DHT22;5104;50.720;7.044;2024-01-06T05:24:25;7.30;99.90
10129;DHT22;5104;50.720;7.044;2024-01-06T05:26:51;7.20;99.90
10129;DHT22;5104;50.720;7.044;2024-01-06T05:29:18;7.30;99.90
10129;DHT22;5104;50.720;7.044;2024-01-06T05:31:47;7.30;99.90
10129;DHT22;5104;50.720;7.044;2024-01-06T05:34:14;7.30;99.90
10129;DHT22;5104;50.720;7.044;2024-01-06T05:36:41;7.30;99.90
10129;DHT22;5104;50.720;7.044;2024-01-06T05:39:08;7.30;99.90
10129;DHT22;5104;50.720;7.044;2024-01-06T05:41:39;7.30;99.90
10129;DHT22;5104;50.720;7.044;2024-01-06T05:44:06;7.30;99.90
10129;DHT22;5104;50.720;7.044;2024-01-06T05:46:34;7.30;99.90
10129;DHT22;5104;50.720;7.044;2024-01-06T05:49:02;7.30;99.90
10129;DHT22;5104;50.720;7.044;2024-01-06T05:51:30;7.30;99.90
10129;DHT22;5104;50.720;7.044;2024-01-06T05:53:57;7.30;99.90
10129;DHT22;5104;50.720;7.044;2024-01-06T05:56:24;7.30;99.90
10129;DHT22;5104;50.720;7.044;2024-01-06T05:58:52;7.30;99.90
10129;DHT22;5104;50.720;7.044;2024-01-06T06:01:19;7.30;99.90
10129;DHT22;5104;50.720;7.044;2024-01-06T06:03:47;7.30;99.90
10129;DHT22;5104;50.720;7.044;2024-01-06T06:06:17;7.30;99.90
10129;DHT22;5104;50.720;7.044;2024-01-06T06:08:44;7.30;99.90
10129;DHT22;5104;50.720;7.044;2024-01-06T06:11:11;7.40;99.90
10129;DHT22;5104;50.720;7.044;2024-01-06T06:13:38;7.40;99.90
10129;DHT22;5104;50.720;7.044;2024-01-06T06:16:06;7.40;99.90
10129;DHT22;5104;50.720;7.044;2024-01-06T06:18:33;7.40;99.90
10129;DHT22;5104;50.720;7.044;2024-01-06T06:21:01;7.40;99.90
10129;DHT22;5104;50.720;7.044;2024-01-06T06:23:30;7.40;99.90
10129;DHT22;5104;50.720;7.044;2024-01-06T06:25:57;7.30;1.00
10129;DHT22;5104;50.720;7.044;2024-01-06T06:28:25;7.10;99.90
10129;DHT22;5104;50.720;7.044;2024-01-06T06:30:52;7.00;99.90
10129;DHT22;5104;50.720;7.044;2024-01-06T06:33:19;6.90;99.90
10129;DHT22;5104;50.720;7.044;2024-01-06T06:35:46;6.80;99.90
10129;DHT22;5104;50.720;7.044;2024-01-06T06:38:13;6.80;1.00
10129;DHT22;5104;50.720;7.044;2024-01-06T06:40:41;6.70;1.00
10129;DHT22;5104;50.720;7.044;2024-01-06T06:43:08;6.60;1.00
10129;DHT22;5104;50.720;7.044;2024-01-06T06:45:35;6.60;1.00
10129;DHT22;5104;50.720;7.044;2024-01-06T06:48:03;6.50;1.00
10129;DHT22;5104;50.720;7.044;2024-01-06T06:50:30;6.50;1.00
10129;DHT22;5104;50.720;7.044;2024-01-06T06:52:57;6.40;1.00
10129;DHT22;5104;50.720;7.044;2024-01-06T06:55:24;6.40;1.00
10129;DHT22;5104;50.720;7.044;2024-01-06T06:57:52;6.40;1.00
10129;DHT22;5104;50.720;7.044;2024-01-06T07:00:19;6.40;99.90
10129;DHT22;5104;50.720;7.044;2024-01-06T07:02:46;6.30;1.00
10129;DHT22;5104;50.720;7.044;2024-01-06T07:05:13;6.30;99.90
10129;DHT22;5104;50.720;7.044;2024-01-06T07:07:40;6.30;1.00
10129;DHT22;5104;50.720;7.044;2024-01-06T07:10:09;6.20;99.90
10129;DHT22;5104;50.720;7.044;2024-01-06T07:12:36;6.20;99.90
10129;DHT22;5104;50.720;7.044;2024-01-06T07:15:05;6.20;99.90
10129;DHT22;5104;50.720;7.044;2024-01-06T07:17:31;6.20;58.90
10129;DHT22;5104;50.720;7.044;2024-01-06T07:19:58;6.10;1.00
10129;DHT22;5104;50.720;7.044;2024-01-06T07:22:25;6.10;1.00
10129;DHT22;5104;50.720;7.044;2024-01-06T07:24:52;6.10;1.00
10129;DHT22;5104;50.720;7.044;2024-01-06T07:27:19;6.10;1.00
10129;DHT22;5104;50.720;7.044;2024-01-06T07:29:46;6.10;1.00
10129;DHT22;5104;50.720;7.044;2024-01-06T07:32:14;6.10;99.90
10129;DHT22;5104;50.720;7.044;2024-01-06T07:34:41;6.10;1.00
10129;DHT22;5104;50.720;7.044;2024-01-06T07:37:09;6.00;1.00
10129;DHT22;5104;50.720;7.044;2024-01-06T07:39:36;6.10;1.00
10129;DHT22;5104;50.720;7.044;2024-01-06T07:42:04;6.10;1.00
10129;DHT22;5104;50.720;7.044;2024-01-06T07:44:30;6.20;1.00
10129;DHT22;5104;50.720;7.044;2024-01-06T07:46:57;6.20;1.00
10129;DHT22;5104;50.720;7.044;2024-01-06T07:49:25;6.20;99.90
10129;DHT22;5104;50.720;7.044;2024-01-06T07:51:52;6.20;99.90
10129;DHT22;5104;50.720;7.044;2024-01-06T07:54:19;6.10;1.00
10129;DHT22;5104;50.720;7.044;2024-01-06T07:56:46;6.10;1.00
10129;DHT22;5104;50.720;7.044;2024-01-06T07:59:14;6.10;1.00
10129;DHT22;5104;50.720;7.044;2024-01-06T08:01:40;6.10;99.90
10129;DHT22;5104;50.720;7.044;2024-01-06T08:04:08;6.10;98.50
10129;DHT22;5104;50.720;7.044;2024-01-06T08:06:36;6.10;1.00
10129;DHT22;5104;50.720;7.044;2024-01-06T08:09:04;6.10;1.00
10129;DHT22;5104;50.720;7.044;2024-01-06T08:11:31;6.30;99.90
10129;DHT22;5104;50.720;7.044;2024-01-06T08:13:58;6.30;1.00
10129;DHT22;5104;50.720;7.044;2024-01-06T08:16:25;6.30;99.90
10129;DHT22;5104;50.720;7.044;2024-01-06T08:18:52;6.30;1.00
10129;DHT22;5104;50.720;7.044;2024-01-06T08:21:19;6.30;1.00
10129;DHT22;5104;50.720;7.044;2024-01-06T08:23:47;6.20;1.00
10129;DHT22;5104;50.720;7.044;2024-01-06T08:26:14;6.20;1.00
10129;DHT22;5104;50.720;7.044;2024-01-06T08:28:41;6.30;1.00
10129;DHT22;5104;50.720;7.044;2024-01-06T08:31:08;6.30;99.90
10129;DHT22;5104;50.720;7.044;2024-01-06T08:33:35;6.30;99.90
10129;DHT22;5104;50.720;7.044;2024-01-06T08:36:02;6.30;99.90
10129;DHT22;5104;50.720;7.044;2024-01-06T08:38:29;6.30;16.00
10129;DHT22;5104;50.720;7.044;2024-01-06T08:40:58;6.30;1.00
10129;DHT22;5104;50.720;7.044;2024-01-06T08:43:24;6.30;1.00
10129;DHT22;5104;50.720;7.044;2024-01-06T08:45:51;6.20;91.50
10129;DHT22;5104;50.720;7.044;2024-01-06T08:48:18;6.20;47.40
10129;DHT22;5104;50.720;7.044;2024-01-06T08:50:45;6.30;1.00
10129;DHT22;5104;50.720;7.044;2024-01-06T08:53:12;6.30;1.00
10129;DHT22;5104;50.720;7.044;2024-01-06T08:55:39;6.30;75.10
10129;DHT22;5104;50.720;7.044;2024-01-06T08:58:07;6.30;99.90
10129;DHT22;5104;50.720;7.044;2024-01-06T09:00:34;6.30;99.90
10129;DHT22;5104;50.720;7.044;2024-01-06T09:03:01;6.30;1.00
10129;DHT22;5104;50.720;7.044;2024-01-06T09:05:28;6.30;1.00
10129;DHT22;5104;50.720;7.044;2024-01-06T09:07:55;6.30;1.00
10129;DHT22;5104;50.720;7.044;2024-01-06T09:10:22;6.30;1.00
10129;DHT22;5104;50.720;7.044;2024-01-06T09:12:49;6.20;99.90
10129;DHT22;5104;50.720;7.044;2024-01-06T09:15:17;6.20;1.00
10129;DHT22;5104;50.720;7.044;2024-01-06T09:17:44;6.30;1.00
10129;DHT22;5104;50.720;7.044;2024-01-06T09:20:11;6.30;99.90
10129;DHT22;5104;50.720;7.044;2024-01-06T09:22:38;6.30;99.90
10129;DHT22;5104;50.720;7.044;2024-01-06T09:25:06;6.30;99.90
10129;DHT22;5104;50.720;7.044;2024-01-06T09:27:33;6.30;1.00
10129;DHT22;5104;50.720;7.044;2024-01-06T09:30:00;6.30;1.00
10129;DHT22;5104;50.720;7.044;2024-01-06T09:32:28;6.30;1.00
10129;DHT22;5104;50.720;7.044;2024-01-06T09:34:56;6.30;99.90
10129;DHT22;5104;50.720;7.044;2024-01-06T09:37:23;6.40;1.00
10129;DHT22;5104;50.720;7.044;2024-01-06T09:39:50;6.40;1.00
10129;DHT22;5104;50.720;7.044;2024-01-06T09:42:17;6.40;13.80
10129;DHT22;5104;50.720;7.044;2024-01-06T09:44:44;6.50;70.80
10129;DHT22;5104;50.720;7.044;2024-01-06T09:47:12;6.50;99.90
10129;DHT22;5104;50.720;7.044;2024-01-06T09:49:43;6.60;99.90
10129;DHT22;5104;50.720;7.044;2024-01-06T09:52:15;6.70;1.00
10129;DHT22;5104;50.720;7.044;2024-01-06T09:54:46;6.70;99.90
10129;DHT22;5104;50.720;7.044;2024-01-06T09:57:15;6.60;99.90
10129;DHT22;5104;50.720;7.044;2024-01-06T09:59:44;6.60;7.90
10129;DHT22;5104;50.720;7.044;2024-01-06T10:02:14;6.70;1.00
10129;DHT22;5104;50.720;7.044;2024-01-06T10:04:43;6.80;1.00
10129;DHT22;5104;50.720;7.044;2024-01-06T10:07:10;6.90;99.90
10129;DHT22;5104;50.720;7.044;2024-01-06T10:09:40;6.90;99.90
10129;DHT22;5104;50.720;7.044;2024-01-06T10:12:08;6.80;1.00
10129;DHT22;5104;50.720;7.044;2024-01-06T10:14:35;6.80;1.00
10129;DHT22;5104;50.720;7.044;2024-01-06T10:17:05;6.80;1.00
10129;DHT22;5104;50.720;7.044;2024-01-06T10:19:33;6.70;1.00
10129;DHT22;5104;50.720;7.044;2024-01-06T10:22:02;6.70;99.90
10129;DHT22;5104;50.720;7.044;2024-01-06T10:24:29;6.70;99.90
10129;DHT22;5104;50.720;7.044;2024-01-06T10:26:57;6.70;98.90
10129;DHT22;5104;50.720;7.044;2024-01-06T10:29:25;6.70;1.00
10129;DHT22;5104;50.720;7.044;2024-01-06T10:31:52;6.80;1.00
10129;DHT22;5104;50.720;7.044;2024-01-06T10:34:20;6.80;1.00
10129;DHT22;5104;50.720;7.044;2024-01-06T10:36:49;6.80;23.20
10129;DHT22;5104;50.720;7.044;2024-01-06T10:39:19;6.70;9.90
10129;DHT22;5104;50.720;7.044;2024-01-06T10:41:48;6.80;1.00
10129;DHT22;5104;50.720;7.044;2024-01-06T10:44:15;6.70;91.80
10129;DHT22;5104;50.720;7.044;2024-01-06T10:46:44;6.70;99.40
10129;DHT22;5104;50.720;7.044;2024-01-06T10:49:11;6.70;99.90
10129;DHT22;5104;50.720;7.044;2024-01-06T10:51:39;6.70;99.90
10129;DHT22;5104;50.720;7.044;2024-01-06T10:54:06;6.70;99.90
10129;DHT22;5104;50.720;7.044;2024-01-06T10:56:37;6.80;99.90
10129;DHT22;5104;50.720;7.044;2024-01-06T10:59:04;6.70;99.70
10129;DHT22;5104;50.720;7.044;2024-01-06T11:01:33;6.60;99.90
10129;DHT22;5104;50.720;7.044;2024-01-06T11:04:02;6.50;99.90
10129;DHT22;5104;50.720;7.044;2024-01-06T11:06:31;6.40;99.90
10129;DHT22;5104;50.720;7.044;2024-01-06T11:09:04;6.40;1.00
10129;DHT22;5104;50.720;7.044;2024-01-06T11:11:34;6.40;1.00
10129;DHT22;5104;50.720;7.044;2024-01-06T11:14:18;6.40;1.00
10129;DHT22;5104;50.720;7.044;2024-01-06T11:16:45;6.60;99.90
10129;DHT22;5104;50.720;7.044;2024-01-06T11:19:42;6.70;1.00
10129;DHT22;5104;50.720;7.044;2024-01-06T11:22:27;6.70;1.00
10129;DHT22;5104;50.720;7.044;2024-01-06T11:25:04;6.80;1.00
10129;DHT22;5104;50.720;7.044;2024-01-06T11:27:33;6.80;1.00
10129;DHT22;5104;50.720;7.044;2024-01-06T11:30:02;6.90;99.90
10129;DHT22;5104;50.720;7.044;2024-01-06T11:32:32;6.70;99.90
10129;DHT22;5104;50.720;7.044;2024-01-06T11:35:06;6.70;99.90
10129;DHT22;5104;50.720;7.044;2024-01-06T11:37:51;6.60;99.90
10129;DHT22;5104;50.720;7.044;2024-01-06T11:40:23;6.50;1.00
10129;DHT22;5104;50.720;7.044;2024-01-06T11:42:59;6.50;1.00
10129;DHT22;5104;50.720;7.044;2024-01-06T11:45:26;6.40;1.00
10129;DHT22;5104;50.720;7.044;2024-01-06T11:47:56;6.40;1.00
10129;DHT22;5104;50.720;7.044;2024-01-06T11:50:24;6.40;1.00
10129;DHT22;5104;50.720;7.044;2024-01-06T11:52:51;6.30;99.90
10129;DHT22;5104;50.720;7.044;2024-01-06T11:55:19;6.30;99.90
10129;DHT22;5104;50.720;7.044;2024-01-06T11:57:46;6.30;99.90
10129;DHT22;5104;50.720;7.044;2024-01-06T12:00:17;6.30;99.90
10129;DHT22;5104;50.720;7.044;2024-01-06T12:02:44;6.40;99.90
10129;DHT22;5104;50.720;7.044;2024-01-06T12:05:15;6.40;17.40
10129;DHT22;5104;50.720;7.044;2024-01-06T12:07:44;6.30;82.00
10129;DHT22;5104;50.720;7.044;2024-01-06T12:10:20;6.20;99.90
10129;DHT22;5104;50.720;7.044;2024-01-06T12:12:55;6.30;99.90
10129;DHT22;5104;50.720;7.044;2024-01-06T12:15:25;6.30;99.90
10129;DHT22;5104;50.720;7.044;2024-01-06T12:17:52;6.30;99.90
10129;DHT22;5104;50.720;7.044;2024-01-06T12:20:20;6.30;99.90
10129;DHT22;5104;50.720;7.044;2024-01-06T12:22:47;6.40;1.00
10129;DHT22;5104;50.720;7.044;2024-01-06T12:25:15;6.30;99.90
10129;DHT22;5104;50.720;7.044;2024-01-06T12:27:42;6.30;99.90
10129;DHT22;5104;50.720;7.044;2024-01-06T12:30:13;6.30;99.90
10129;DHT22;5104;50.720;7.044;2024-01-06T12:32:44;6.30;99.90
10129;DHT22;5104;50.720;7.044;2024-01-06T12:35:11;6.30;99.90
10129;DHT22;5104;50.720;7.044;2024-01-06T12:37:38;6.30;1.00
10129;DHT22;5104;50.720;7.044;2024-01-06T12:40:08;6.20;1.00
10129;DHT22;5104;50.720;7.044;2024-01-06T12:42:36;6.20;1.00
10129;DHT22;5104;50.720;7.044;2024-01-06T12:45:04;6.20;1.00
10129;DHT22;5104;50.720;7.044;2024-01-06T12:47:31;6.20;1.00
10129;DHT22;5104;50.720;7.044;2024-01-06T12:49:59;6.20;99.90
10129;DHT22;5104;50.720;7.044;2024-01-06T12:52:26;6.10;99.90
10129;DHT22;5104;50.720;7.044;2024-01-06T12:54:54;6.10;99.90
10129;DHT22;5104;50.720;7.044;2024-01-06T12:57:21;6.10;1.00
10129;DHT22;5104;50.720;7.044;2024-01-06T12:59:48;6.10;1.00
10129;DHT22;5104;50.720;7.044;2024-01-06T13:02:14;6.20;1.00
10129;DHT22;5104;50.720;7.044;2024-01-06T13:04:41;6.20;99.90
10129;DHT22;5104;50.720;7.044;2024-01-06T13:07:10;6.20;99.90
10129;DHT22;5104;50.720;7.044;2024-01-06T13:09:37;6.20;99.90
10129;DHT22;5104;50.720;7.044;2024-01-06T13:12:05;6.20;99.90
10129;DHT22;5104;50.720;7.044;2024-01-06T13:14:32;6.20;99.90
10129;DHT22;5104;50.720;7.044;2024-01-06T13:16:59;6.20;99.90
10129;DHT22;5104;50.720;7.044;2024-01-06T13:19:26;6.20;99.90
10129;DHT22;5104;50.720;7.044;2024-01-06T13:21:53;6.10;99.90
10129;DHT22;5104;50.720;7.044;2024-01-06T13:24:22;6.10;1.00
10129;DHT22;5104;50.720;7.044;2024-01-06T13:26:49;6.00;99.90
10129;DHT22;5104;50.720;7.044;2024-01-06T13:29:16;6.00;1.00
10129;DHT22;5104;50.720;7.044;2024-01-06T13:31:43;6.00;1.00
10129;DHT22;5104;50.720;7.044;2024-01-06T13:34:10;5.90;1.00
10129;DHT22;5104;50.720;7.044;2024-01-06T13:36:37;5.90;99.90
10129;DHT22;5104;50.720;7.044;2024-01-06T13:39:05;5.80;1.00
10129;DHT22;5104;50.720;7.044;2024-01-06T13:41:34;5.80;1.00
10129;DHT22;5104;50.720;7.044;2024-01-06T13:44:01;5.80;1.00
10129;DHT22;5104;50.720;7.044;2024-01-06T13:46:28;5.80;1.00
10129;DHT22;5104;50.720;7.044;2024-01-06T13:48:55;5.80;99.90
10129;DHT22;5104;50.720;7.044;2024-01-06T13:51:22;5.70;99.90
10129;DHT22;5104;50.720;7.044;2024-01-06T13:53:49;5.70;1.00
10129;DHT22;5104;50.720;7.044;2024-01-06T13:56:16;5.70;1.00
10129;DHT22;5104;50.720;7.044;2024-01-06T13:58:45;5.70;1.00
10129;DHT22;5104;50.720;7.044;2024-01-06T14:01:13;5.60;96.00
10129;DHT22;5104;50.720;7.044;2024-01-06T14:03:40;5.60;99.90
10129;DHT22;5104;50.720;7.044;2024-01-06T14:06:07;5.60;1.00
10129;DHT22;5104;50.720;7.044;2024-01-06T14:08:34;5.60;1.00
10129;DHT22;5104;50.720;7.044;2024-01-06T14:11:01;5.50;99.90
10129;DHT22;5104;50.720;7.044;2024-01-06T14:13:28;5.50;1.00
10129;DHT22;5104;50.720;7.044;2024-01-06T14:15:57;5.40;99.90
10129;DHT22;5104;50.720;7.044;2024-01-06T14:18:23;5.40;1.00
10129;DHT22;5104;50.720;7.044;2024-01-06T14:20:50;5.30;1.00
10129;DHT22;5104;50.720;7.044;2024-01-06T14:23:17;5.30;87.30
10129;DHT22;5104;50.720;7.044;2024-01-06T14:25:45;5.30;1.00
10129;DHT22;5104;50.720;7.044;2024-01-06T14:28:12;5.20;99.90
10129;DHT22;5104;50.720;7.044;2024-01-06T14:30:39;5.10;1.00
10129;DHT22;5104;50.720;7.044;2024-01-06T14:33:07;5.00;1.00
10129;DHT22;5104;50.720;7.044;2024-01-06T14:35:35;5.00;99.90
10129;DHT22;5104;50.720;7.044;2024-01-06T14:38:02;5.00;1.00
10129;DHT22;5104;50.720;7.044;2024-01-06T14:40:28;5.00;99.90
10129;DHT22;5104;50.720;7.044;2024-01-06T14:42:56;5.10;1.00
10129;DHT22;5104;50.720;7.044;2024-01-06T14:45:23;5.20;1.00
10129;DHT22;5104;50.720;7.044;2024-01-06T14:47:50;5.10;1.00
10129;DHT22;5104;50.720;7.044;2024-01-06T14:50:19;5.10;1.00
10129;DHT22;5104;50.720;7.044;2024-01-06T14:52:46;5.00;1.00
10129;DHT22;5104;50.720;7.044;2024-01-06T14:55:13;5.00;1.00
10129;DHT22;5104;50.720;7.044;2024-01-06T14:57:40;4.90;1.00
10129;DHT22;5104;50.720;7.044;2024-01-06T15:00:07;5.00;99.90
10129;DHT22;5104;50.720;7.044;2024-01-06T15:02:36;5.00;99.90
10129;DHT22;5104;50.720;7.044;2024-01-06T15:05:03;4.90;99.90
10129;DHT22;5104;50.720;7.044;2024-01-06T15:07:32;4.80;1.00
10129;DHT22;5104;50.720;7.044;2024-01-06T15:09:59;4.80;1.00
10129;DHT22;5104;50.720;7.044;2024-01-06T15:12:26;4.70;99.90
10129;DHT22;5104;50.720;7.044;2024-01-06T15:14:53;4.80;1.00
10129;DHT22;5104;50.720;7.044;2024-01-06T15:17:20;4.80;1.00
10129;DHT22;5104;50.720;7.044;2024-01-06T15:19:47;4.80;69.50
10129;DHT22;5104;50.720;7.044;2024-01-06T15:22:14;4.70;1.00
10129;DHT22;5104;50.720;7.044;2024-01-06T15:24:43;4.70;1.00
10129;DHT22;5104;50.720;7.044;2024-01-06T15:27:12;4.60;1.00
10129;DHT22;5104;50.720;7.044;2024-01-06T15:29:39;4.60;79.80
10129;DHT22;5104;50.720;7.044;2024-01-06T15:32:06;4.60;99.90
10129;DHT22;5104;50.720;7.044;2024-01-06T15:34:34;4.60;99.90
10129;DHT22;5104;50.720;7.044;2024-01-06T15:37:01;4.60;99.90
10129;DHT22;5104;50.720;7.044;2024-01-06T15:39:28;4.50;99.90
10129;DHT22;5104;50.720;7.044;2024-01-06T15:41:57;4.50;99.90
10129;DHT22;5104;50.720;7.044;2024-01-06T15:44:24;4.50;99.90
10129;DHT22;5104;50.720;7.044;2024-01-06T15:46:50;4.40;99.90
10129;DHT22;5104;50.720;7.044;2024-01-06T15:49:18;4.50;99.90
10129;DHT22;5104;50.720;7.044;2024-01-06T15:51:45;4.50;99.90
10129;DHT22;5104;50.720;7.044;2024-01-06T15:54:12;4.50;99.90
10129;DHT22;5104;50.720;7.044;2024-01-06T15:56:39;4.50;99.90
10129;DHT22;5104;50.720;7.044;2024-01-06T15:59:08;4.50;99.90
10129;DHT22;5104;50.720;7.044;2024-01-06T16:01:35;4.40;99.90
10129;DHT22;5104;50.720;7.044;2024-01-06T16:04:02;4.50;99.90
10129;DHT22;5104;50.720;7.044;2024-01-06T16:06:29;4.40;99.90
10129;DHT22;5104;50.720;7.044;2024-01-06T16:08:57;4.40;99.90